Time;durP1;ratioP1;P1;durP2;ratioP2;P2;SDS_P1;SDS_P2;PMS_P1;PMS_P2;Temp;Humidity;BMP_temperature;BMP_pressure;BME280_temperature;BME280_humidity;BME280_pressure;Samples;Min_cycle;Max_cycle;Signal;HPM_P1;HPM_P2
2022/10/25 00:00:36;;;;;;;;;;;10.00;99.90;;;;;;5001993;28;19920;-85
2022/10/25 00:03:13;;;;;;;;;;;9.90;99.90;;;;;;5004719;28;19998;-85
2022/10/25 00:06:48;;;;;;;;;;;9.90;99.90;;;;;;5032823;28;19921;-87
2022/10/25 00:08:54;;;;;;;;;;;10.00;99.90;;;;;;4999641;28;20269;-87
2022/10/25 00:15:04;;;;;;;;;;;10.00;99.90;;;;;;4952507;29;19915;-88
2022/10/25 00:18:14;;;;;;;;;;;10.00;99.90;;;;;;4952241;29;19961;-87
2022/10/25 00:24:29;;;;;;;;;;;10.00;99.90;;;;;;4970497;28;19922;-87
2022/10/25 00:27:04;;;;;;;;;;;10.10;99.90;;;;;;5030408;28;20303;-87
2022/10/25 00:29:45;;;;;;;;;;;;;;;;;;;;;
2022/10/25 00:32:35;;;;;;;;;;;10.00;99.90;;;;;;4987705;28;19917;-86
2022/10/25 00:35:34;;;;;;;;;;;;;;;;;;;;;
2022/10/25 00:38:37;;;;;;;;;;;10.00;99.90;;;;;;5013671;28;20003;-85
2022/10/25 00:41:15;;;;;;;;;;;10.10;99.90;;;;;;5032534;28;20067;-86
2022/10/25 00:44:12;;;;;;;;;;;10.10;99.90;;;;;;5032235;28;19909;-88
2022/10/25 00:46:38;;;;;;;;;;;10.20;99.90;;;;;;5008500;28;19967;-86
2022/10/25 00:49:22;;;;;;;;;;;10.20;99.90;;;;;;5014583;28;19916;-87
2022/10/25 00:51:56;;;;;;;;;;;10.20;99.90;;;;;;5019723;28;19914;-86
2022/10/25 00:55:21;;;;;;;;;;;;;;;;;;;;;
2022/10/25 01:01:20;;;;;;;;;;;;;;;;;;;;;
2022/10/25 01:13:29;;;;;;;;;;;10.10;99.90;;;;;;4913713;29;20000;-86
2022/10/25 01:19:42;;;;;;;;;;;10.10;99.90;;;;;;4908441;29;19912;-88
2022/10/25 01:22:34;;;;;;;;;;;10.10;99.90;;;;;;4941012;29;20286;-85
2022/10/25 01:25:15;;;;;;;;;;;10.10;99.90;;;;;;4943393;29;19926;-86
2022/10/25 01:32:01;;;;;;;;;;;;;;;;;;;;;
2022/10/25 01:41:10;;;;;;;;;;;9.80;99.90;;;;;;4969230;28;20053;-87
2022/10/25 01:47:28;;;;;;;;;;;;;;;;;;;;;
2022/10/25 01:56:54;;;;;;;;;;;9.80;99.90;;;;;;5010961;28;19961;-88
2022/10/25 02:06:38;;;;;;;;;;;9.60;99.90;;;;;;4915615;28;19915;-86
2022/10/25 02:10:40;;;;;;;;;;;;;;;;;;;;;
2022/10/25 02:16:19;;;;;;;;;;;9.50;99.90;;;;;;4948748;28;19919;-87
2022/10/25 02:19:40;;;;;;;;;;;;;;;;;;;;;
2022/10/25 02:22:32;;;;;;;;;;;9.40;99.90;;;;;;5004116;28;20006;-87
2022/10/25 02:31:39;;;;;;;;;;;9.30;99.90;;;;;;4897135;29;19912;-86
2022/10/25 02:34:31;;;;;;;;;;;9.20;99.90;;;;;;4912691;29;19912;-86
2022/10/25 02:40:51;;;;;;;;;;;;;;;;;;;;;
2022/10/25 02:46:54;;;;;;;;;;;9.00;99.90;;;;;;5027500;28;19920;-87
2022/10/25 02:49:43;;;;;;;;;;;;;;;;;;;;;
2022/10/25 02:52:54;;;;;;;;;;;;;;;;;;;;;
2022/10/25 02:55:37;;;;;;;;;;;8.80;99.90;;;;;;5034070;28;19920;-86
2022/10/25 02:58:24;;;;;;;;;;;;;;;;;;;;;
2022/10/25 03:01:56;;;;;;;;;;;;;;;;;;;;;
2022/10/25 03:07:28;;;;;;;;;;;9.00;99.90;;;;;;4966925;28;20007;-87
2022/10/25 03:13:35;;;;;;;;;;;9.00;99.90;;;;;;4944890;28;19914;-85
2022/10/25 03:19:29;;;;;;;;;;;8.90;99.90;;;;;;4938122;29;19910;-85
2022/10/25 03:22:41;;;;;;;;;;;;;;;;;;;;;
2022/10/25 03:28:59;;;;;;;;;;;;;;;;;;;;;
2022/10/25 03:32:10;;;;;;;;;;;;;;;;;;;;;
2022/10/25 03:35:11;;;;;;;;;;;9.00;99.90;;;;;;4818913;29;20398;-86
2022/10/25 03:38:10;;;;;;;;;;;9.00;99.90;;;;;;4817437;29;20020;-86
2022/10/25 03:40:41;;;;;;;;;;;9.00;99.90;;;;;;4838443;29;20007;-87
2022/10/25 03:46:17;;;;;;;;;;;9.10;99.90;;;;;;4858752;29;19912;-87
2022/10/25 03:48:59;;;;;;;;;;;8.90;99.90;;;;;;4872878;29;19931;-87
2022/10/25 03:51:28;;;;;;;;;;;9.00;99.90;;;;;;4903071;29;20005;-87
2022/10/25 03:53:57;;;;;;;;;;;9.00;99.90;;;;;;4968479;28;19913;-87
2022/10/25 03:56:22;;;;;;;;;;;9.00;99.90;;;;;;5033204;28;19913;-86
2022/10/25 03:58:48;;;;;;;;;;;9.00;99.90;;;;;;5033522;28;20012;-87
2022/10/25 04:01:23;;;;;;;;;;;9.00;99.90;;;;;;5006508;28;19913;-87
2022/10/25 04:07:13;;;;;;;;;;;;;;;;;;;;;
2022/10/25 04:10:13;;;;;;;;;;;;;;;;;;;;;
2022/10/25 04:16:13;;;;;;;;;;;9.10;99.90;;;;;;5026747;28;20000;-87
2022/10/25 04:19:10;;;;;;;;;;;;;;;;;;;;;
2022/10/25 04:21:56;;;;;;;;;;;9.20;99.90;;;;;;5032434;28;19921;-86
2022/10/25 04:30:50;;;;;;;;;;;9.30;99.90;;;;;;4923201;29;19966;-86
2022/10/25 04:33:39;;;;;;;;;;;9.40;99.90;;;;;;4933129;29;19915;-89
2022/10/25 04:36:45;;;;;;;;;;;9.50;99.90;;;;;;4997750;28;19914;-88
2022/10/25 04:39:24;;;;;;;;;;;9.50;99.90;;;;;;5023334;28;19913;-87
2022/10/25 04:41:58;;;;;;;;;;;9.60;99.90;;;;;;5026389;28;19972;-87
2022/10/25 04:45:30;;;;;;;;;;;9.60;99.90;;;;;;5010550;28;19960;-86
2022/10/25 04:47:40;;;;;;;;;;;9.50;99.90;;;;;;5013656;28;20377;-87
2022/10/25 04:50:15;;;;;;;;;;;9.50;99.90;;;;;;5010211;28;19921;-87
2022/10/25 04:52:47;;;;;;;;;;;9.40;99.90;;;;;;5032033;28;19963;-87
2022/10/25 04:55:15;;;;;;;;;;;9.40;99.90;;;;;;5015633;28;19913;-86
2022/10/25 04:58:11;;;;;;;;;;;;;;;;;;;;;
2022/10/25 05:00:32;;;;;;;;;;;9.40;99.90;;;;;;5018801;28;19936;-86
2022/10/25 05:03:01;;;;;;;;;;;9.30;99.90;;;;;;5029014;28;20026;-88
2022/10/25 05:05:32;;;;;;;;;;;9.30;99.90;;;;;;5024809;28;19983;-88
2022/10/25 05:08:00;;;;;;;;;;;9.30;99.90;;;;;;5022035;28;19921;-88
2022/10/25 05:10:32;;;;;;;;;;;9.20;99.90;;;;;;5025797;28;19921;-87
2022/10/25 05:13:29;;;;;;;;;;;9.10;99.90;;;;;;5032454;28;19910;-88
2022/10/25 05:18:44;;;;;;;;;;;9.10;99.90;;;;;;4942827;29;19924;-86
2022/10/25 05:24:23;;;;;;;;;;;9.10;99.90;;;;;;4986002;28;19914;-86
2022/10/25 05:30:40;;;;;;;;;;;9.00;99.90;;;;;;5019523;28;19921;-85
2022/10/25 05:33:25;;;;;;;;;;;9.10;99.90;;;;;;5019047;28;19921;-85
2022/10/25 05:36:15;;;;;;;;;;;9.00;99.90;;;;;;5014715;28;20511;-86
2022/10/25 05:39:37;;;;;;;;;;;9.00;99.90;;;;;;5034553;28;20311;-86
2022/10/25 05:42:11;;;;;;;;;;;8.90;99.90;;;;;;5031088;28;19975;-87
2022/10/25 05:51:01;;;;;;;;;;;8.70;99.90;;;;;;4976766;28;19917;-86
2022/10/25 05:53:45;;;;;;;;;;;8.70;99.90;;;;;;5018746;28;19948;-86
2022/10/25 05:56:30;;;;;;;;;;;8.80;99.90;;;;;;5020140;28;20014;-86
2022/10/25 05:59:34;;;;;;;;;;;8.80;99.90;;;;;;5017612;28;19909;-85
2022/10/25 06:02:23;;;;;;;;;;;8.80;99.90;;;;;;5019251;28;19924;-86
2022/10/25 06:11:31;;;;;;;;;;;8.90;99.90;;;;;;4972826;28;19914;-85
2022/10/25 06:17:15;;;;;;;;;;;8.90;99.90;;;;;;4935251;29;20367;-85
2022/10/25 06:19:52;;;;;;;;;;;8.90;99.90;;;;;;4934353;29;19915;-85
2022/10/25 06:22:44;;;;;;;;;;;9.00;99.90;;;;;;4955021;28;20374;-87
2022/10/25 06:25:22;;;;;;;;;;;9.10;99.90;;;;;;4957255;28;20038;-86
2022/10/25 06:27:54;;;;;;;;;;;9.20;99.90;;;;;;4994999;28;20308;-87
2022/10/25 06:30:19;;;;;;;;;;;9.20;99.90;;;;;;5029899;28;19941;-87
2022/10/25 06:32:45;;;;;;;;;;;9.20;99.90;;;;;;5015646;28;20036;-86
2022/10/25 06:35:16;;;;;;;;;;;9.10;99.90;;;;;;5026200;28;20332;-87
2022/10/25 06:37:47;;;;;;;;;;;9.10;99.90;;;;;;5032653;28;19990;-90
2022/10/25 06:40:16;;;;;;;;;;;9.10;99.90;;;;;;5033467;28;19914;-87
2022/10/25 06:42:47;;;;;;;;;;;9.10;99.90;;;;;;5033983;28;20427;-88
2022/10/25 06:45:13;;;;;;;;;;;9.10;99.90;;;;;;5025766;28;19928;-87
2022/10/25 06:48:00;;;;;;;;;;;9.10;99.90;;;;;;5025467;28;20051;-88
2022/10/25 06:50:36;;;;;;;;;;;9.10;99.90;;;;;;5025229;28;19917;-85
2022/10/25 06:53:04;;;;;;;;;;;9.20;99.90;;;;;;5033390;28;19917;-85
2022/10/25 06:55:30;;;;;;;;;;;9.10;99.90;;;;;;5005196;28;19921;-85
2022/10/25 06:58:04;;;;;;;;;;;9.20;99.90;;;;;;5030144;28;19981;-86
2022/10/25 07:01:03;;;;;;;;;;;;;;;;;;;;;
2022/10/25 07:03:33;;;;;;;;;;;9.10;99.90;;;;;;5030643;28;19914;-88
2022/10/25 07:06:40;;;;;;;;;;;9.10;99.90;;;;;;5010567;28;19919;-87
2022/10/25 07:09:16;;;;;;;;;;;9.10;99.90;;;;;;5029625;28;19917;-88
2022/10/25 07:11:44;;;;;;;;;;;9.10;99.90;;;;;;5013827;28;19940;-87
2022/10/25 07:14:10;;;;;;;;;;;9.20;99.90;;;;;;5032901;28;19917;-86
2022/10/25 07:20:01;;;;;;;;;;;9.20;99.90;;;;;;4971840;28;20204;-87
2022/10/25 07:22:51;;;;;;;;;;;;;;;;;;;;;
2022/10/25 07:25:35;;;;;;;;;;;9.30;99.90;;;;;;5033014;28;19910;-87
2022/10/25 07:31:43;;;;;;;;;;;9.50;99.90;;;;;;4926209;29;19918;-88
2022/10/25 07:34:31;;;;;;;;;;;9.60;99.90;;;;;;5020904;28;19924;-88
2022/10/25 07:37:08;;;;;;;;;;;9.70;99.90;;;;;;5030868;28;19920;-90
2022/10/25 07:39:50;;;;;;;;;;;9.80;99.90;;;;;;5005172;28;20395;-88
2022/10/25 07:42:29;;;;;;;;;;;9.90;99.90;;;;;;5012350;28;19968;-89
2022/10/25 07:45:00;;;;;;;;;;;10.00;99.90;;;;;;5011090;28;19998;-89
2022/10/25 07:47:42;;;;;;;;;;;;;;;;;;;;;
2022/10/25 07:50:11;;;;;;;;;;;10.20;99.90;;;;;;5028397;28;19923;-88
2022/10/25 07:53:01;;;;;;;;;;;;;;;;;;;;;
2022/10/25 07:56:16;;;;;;;;;;;;;;;;;;;;;
2022/10/25 08:01:35;;;;;;;;;;;10.80;99.90;;;;;;5029739;28;20002;-86
2022/10/25 08:04:29;;;;;;;;;;;;;;;;;;;;;
2022/10/25 08:07:00;;;;;;;;;;;11.00;99.90;;;;;;5017986;28;19914;-87
2022/10/25 08:09:26;;;;;;;;;;;11.20;99.90;;;;;;5018013;28;19917;-88
2022/10/25 08:11:52;;;;;;;;;;;11.30;99.90;;;;;;5033163;28;19910;-89
2022/10/25 08:14:18;;;;;;;;;;;11.40;99.90;;;;;;5032762;28;19919;-86
2022/10/25 08:16:43;;;;;;;;;;;11.40;99.90;;;;;;5033083;28;19960;-90
2022/10/25 08:19:09;;;;;;;;;;;11.60;99.90;;;;;;5011556;28;19918;-91
2022/10/25 08:21:34;;;;;;;;;;;11.70;99.90;;;;;;5032881;28;19936;-90
2022/10/25 08:24:00;;;;;;;;;;;11.70;99.90;;;;;;5032990;28;20690;-87
2022/10/25 08:26:27;;;;;;;;;;;11.80;99.90;;;;;;5032843;28;20369;-88
2022/10/25 08:28:53;;;;;;;;;;;12.00;99.90;;;;;;5018566;28;20619;-88
2022/10/25 08:31:18;;;;;;;;;;;12.10;99.90;;;;;;5018003;28;20004;-90
2022/10/25 08:33:44;;;;;;;;;;;12.10;99.90;;;;;;5014369;28;20477;-87
2022/10/25 08:36:09;;;;;;;;;;;12.20;99.90;;;;;;5019537;28;19917;-91
2022/10/25 08:38:35;;;;;;;;;;;12.40;99.90;;;;;;5027614;28;20357;-87
2022/10/25 08:41:18;;;;;;;;;;;12.40;99.90;;;;;;5030879;28;19924;-87
2022/10/25 08:43:54;;;;;;;;;;;12.50;99.90;;;;;;5032211;28;19924;-88
2022/10/25 08:46:28;;;;;;;;;;;12.60;99.90;;;;;;5030837;28;20732;-87
2022/10/25 08:49:03;;;;;;;;;;;12.80;99.90;;;;;;5012996;28;20373;-90
2022/10/25 08:51:35;;;;;;;;;;;12.90;99.90;;;;;;5028032;28;20004;-90
2022/10/25 08:54:10;;;;;;;;;;;13.10;99.90;;;;;;5032114;28;20000;-89
2022/10/25 08:56:36;;;;;;;;;;;13.10;99.90;;;;;;5015034;28;19910;-89
2022/10/25 08:59:02;;;;;;;;;;;13.10;99.90;;;;;;5021904;28;19917;-88
2022/10/25 09:01:31;;;;;;;;;;;13.10;99.90;;;;;;5032700;28;19966;-89
2022/10/25 09:03:59;;;;;;;;;;;13.20;99.90;;;;;;5033700;28;19940;-88
2022/10/25 09:06:30;;;;;;;;;;;13.30;99.90;;;;;;5018204;28;20070;-88
2022/10/25 09:09:13;;;;;;;;;;;13.40;99.90;;;;;;5035047;28;19920;-87
2022/10/25 09:11:38;;;;;;;;;;;13.20;99.90;;;;;;5029226;28;19913;-90
2022/10/25 09:14:10;;;;;;;;;;;13.20;99.90;;;;;;5035779;28;19924;-88
2022/10/25 09:16:45;;;;;;;;;;;13.30;99.90;;;;;;5028786;28;19974;-90
2022/10/25 09:19:15;;;;;;;;;;;13.30;99.90;;;;;;5015867;28;19928;-88
2022/10/25 09:21:48;;;;;;;;;;;13.40;99.90;;;;;;5012636;28;19920;-90
2022/10/25 09:24:29;;;;;;;;;;;13.60;99.90;;;;;;5018208;28;19931;-90
2022/10/25 09:26:54;;;;;;;;;;;13.50;99.90;;;;;;5033269;28;19925;-90
2022/10/25 09:29:43;;;;;;;;;;;13.80;99.90;;;;;;5018111;28;19917;-90
2022/10/25 09:32:20;;;;;;;;;;;13.90;99.90;;;;;;4974768;28;20376;-90
2022/10/25 09:34:46;;;;;;;;;;;13.90;99.90;;;;;;5018049;28;20007;-90
2022/10/25 09:37:38;;;;;;;;;;;13.90;99.90;;;;;;5035163;28;20399;-89
2022/10/25 09:40:13;;;;;;;;;;;14.00;99.90;;;;;;5015921;28;20253;-89
2022/10/25 09:42:45;;;;;;;;;;;14.00;99.90;;;;;;5034300;28;19948;-89
2022/10/25 09:45:29;;;;;;;;;;;13.90;99.90;;;;;;5033719;28;20010;-93
2022/10/25 09:48:04;;;;;;;;;;;13.80;99.90;;;;;;5030845;28;19917;-90
2022/10/25 09:50:34;;;;;;;;;;;13.70;99.90;;;;;;5033346;28;19939;-87
2022/10/25 09:53:09;;;;;;;;;;;13.90;99.90;;;;;;5017136;28;19917;-90
2022/10/25 09:55:54;;;;;;;;;;;13.90;99.90;;;;;;5035279;28;19967;-89
2022/10/25 09:58:19;;;;;;;;;;;14.00;99.90;;;;;;5030910;28;20055;-91
2022/10/25 10:00:45;;;;;;;;;;;14.00;99.90;;;;;;5032012;28;19948;-90
2022/10/25 10:03:11;;;;;;;;;;;14.00;99.90;;;;;;5034750;28;19916;-90
2022/10/25 10:05:38;;;;;;;;;;;14.10;99.90;;;;;;5017660;28;19936;-88
2022/10/25 10:08:03;;;;;;;;;;;14.10;99.80;;;;;;5016804;28;20343;-87
2022/10/25 10:10:31;;;;;;;;;;;14.20;99.90;;;;;;5031989;28;19917;-87
2022/10/25 10:13:17;;;;;;;;;;;14.10;99.70;;;;;;5022430;28;19970;-87
2022/10/25 10:15:47;;;;;;;;;;;14.20;99.90;;;;;;5028966;28;19913;-86
2022/10/25 10:18:23;;;;;;;;;;;14.10;98.60;;;;;;5015957;28;19920;-87
2022/10/25 10:21:03;;;;;;;;;;;14.30;99.10;;;;;;5015625;28;19917;-85
2022/10/25 10:23:30;;;;;;;;;;;14.30;97.60;;;;;;5033239;28;20020;-87
2022/10/25 10:25:55;;;;;;;;;;;14.30;97.70;;;;;;5008326;28;19918;-86
2022/10/25 10:28:21;;;;;;;;;;;14.40;98.90;;;;;;5025487;28;20399;-86
2022/10/25 10:30:54;;;;;;;;;;;14.40;96.70;;;;;;5026667;28;19924;-87
2022/10/25 10:33:21;;;;;;;;;;;14.40;96.30;;;;;;5033331;28;19921;-85
2022/10/25 10:35:46;;;;;;;;;;;14.40;96.50;;;;;;5033382;28;20016;-87
2022/10/25 10:38:11;;;;;;;;;;;14.60;97.00;;;;;;5033251;28;20542;-84
2022/10/25 10:40:37;;;;;;;;;;;14.50;97.10;;;;;;5029379;28;19913;-84
2022/10/25 10:43:20;;;;;;;;;;;14.70;95.80;;;;;;5031404;28;20373;-84
2022/10/25 10:45:50;;;;;;;;;;;14.60;94.60;;;;;;5029005;28;20365;-83
2022/10/25 10:48:20;;;;;;;;;;;14.80;93.90;;;;;;5032394;28;19970;-84
2022/10/25 10:50:50;;;;;;;;;;;14.80;94.00;;;;;;5024963;28;19978;-85
2022/10/25 10:53:28;;;;;;;;;;;15.00;93.70;;;;;;5026612;28;19920;-83
2022/10/25 10:55:54;;;;;;;;;;;15.10;94.60;;;;;;5031881;28;19963;-85
2022/10/25 10:58:25;;;;;;;;;;;15.30;92.00;;;;;;5014377;28;20031;-83
2022/10/25 11:00:53;;;;;;;;;;;15.40;91.30;;;;;;5021911;28;20332;-85
2022/10/25 11:03:38;;;;;;;;;;;15.50;90.50;;;;;;5030337;28;19967;-83
2022/10/25 11:06:13;;;;;;;;;;;15.70;90.50;;;;;;5028941;28;19913;-83
2022/10/25 11:08:39;;;;;;;;;;;16.20;90.50;;;;;;5026121;28;19928;-81
2022/10/25 11:11:15;;;;;;;;;;;16.40;87.40;;;;;;5029458;28;19917;-82
2022/10/25 11:13:55;;;;;;;;;;;16.50;86.70;;;;;;5030196;28;19952;-83
2022/10/25 11:16:39;;;;;;;;;;;16.50;85.90;;;;;;5030950;28;19978;-82
2022/10/25 11:19:31;;;;;;;;;;;16.90;84.20;;;;;;5029874;28;20356;-82
2022/10/25 11:22:09;;;;;;;;;;;17.00;83.60;;;;;;5007675;28;19917;-82
2022/10/25 11:24:46;;;;;;;;;;;16.90;85.00;;;;;;5027816;28;19949;-82
2022/10/25 11:27:18;;;;;;;;;;;16.60;84.00;;;;;;5031478;28;20504;-83
2022/10/25 11:29:49;;;;;;;;;;;16.40;81.80;;;;;;5032089;28;19960;-83
2022/10/25 11:32:17;;;;;;;;;;;16.40;84.60;;;;;;5031143;28;19925;-82
2022/10/25 11:34:51;;;;;;;;;;;16.50;84.80;;;;;;5025938;28;19918;-82
2022/10/25 11:37:22;;;;;;;;;;;16.70;84.40;;;;;;5030840;28;20345;-82
2022/10/25 11:40:06;;;;;;;;;;;16.50;80.50;;;;;;5029121;28;19920;-82
2022/10/25 11:42:42;;;;;;;;;;;16.40;82.10;;;;;;5025012;28;19913;-83
2022/10/25 11:45:20;;;;;;;;;;;16.40;81.20;;;;;;5128270;27;19927;-76
2022/10/25 11:47:54;;;;;;;;;;;16.40;82.10;;;;;;5093551;28;19913;-76
2022/10/25 11:50:32;;;;;;;;;;;16.30;83.50;;;;;;5114657;28;19939;-75
2022/10/25 11:53:11;;;;;;;;;;;16.30;83.20;;;;;;5119594;28;19920;-78
2022/10/25 11:55:39;;;;;;;;;;;16.20;82.00;;;;;;5088269;28;19950;-79
2022/10/25 11:58:26;;;;;;;;;;;16.30;84.40;;;;;;5103082;28;19951;-80
2022/10/25 12:01:04;;;;;;;;;;;16.20;81.00;;;;;;5111981;28;19931;-78
2022/10/25 12:03:44;;;;;;;;;;;16.30;85.20;;;;;;5089384;28;20264;-79
2022/10/25 12:06:25;;;;;;;;;;;16.40;83.00;;;;;;5086855;28;19912;-74
2022/10/25 12:08:54;;;;;;;;;;;16.30;79.90;;;;;;5094106;28;19958;-75
2022/10/25 12:11:28;;;;;;;;;;;16.30;80.50;;;;;;5092752;28;19920;-75
2022/10/25 12:13:57;;;;;;;;;;;16.30;80.40;;;;;;5093140;28;19920;-77
2022/10/25 12:16:23;;;;;;;;;;;16.30;81.50;;;;;;5096071;28;19916;-75
2022/10/25 12:18:51;;;;;;;;;;;16.30;80.90;;;;;;5092078;28;19955;-74
2022/10/25 12:21:39;;;;;;;;;;;16.20;81.60;;;;;;5092581;28;19991;-75
2022/10/25 12:24:06;;;;;;;;;;;16.30;83.20;;;;;;5095478;28;19924;-76
2022/10/25 12:26:33;;;;;;;;;;;16.30;81.50;;;;;;5088915;28;20011;-77
2022/10/25 12:29:03;;;;;;;;;;;16.30;82.00;;;;;;5101161;28;20484;-76
2022/10/25 12:31:36;;;;;;;;;;;16.60;81.80;;;;;;5090254;28;20026;-78
2022/10/25 12:34:09;;;;;;;;;;;16.70;80.80;;;;;;5084432;28;19924;-77
2022/10/25 12:36:37;;;;;;;;;;;16.70;78.30;;;;;;5088200;28;19916;-76
2022/10/25 12:39:11;;;;;;;;;;;16.70;79.20;;;;;;5093727;28;19916;-77
2022/10/25 12:41:39;;;;;;;;;;;16.60;74.10;;;;;;5090806;28;20457;-76
2022/10/25 12:44:12;;;;;;;;;;;16.30;76.60;;;;;;5090342;28;20326;-74
2022/10/25 12:46:56;;;;;;;;;;;16.20;74.60;;;;;;5088137;28;19921;-75
2022/10/25 12:49:40;;;;;;;;;;;16.30;75.30;;;;;;5087941;28;19938;-74
2022/10/25 12:52:13;;;;;;;;;;;16.50;75.50;;;;;;5080004;28;19916;-74
2022/10/25 12:54:48;;;;;;;;;;;16.50;74.60;;;;;;5089983;28;19913;-77
2022/10/25 12:57:18;;;;;;;;;;;16.30;69.90;;;;;;5074301;28;20499;-75
2022/10/25 12:59:59;;;;;;;;;;;16.10;73.00;;;;;;5080939;28;19923;-77
2022/10/25 13:02:46;;;;;;;;;;;16.20;70.00;;;;;;5067542;28;19966;-77
2022/10/25 13:05:27;;;;;;;;;;;16.30;70.70;;;;;;5069735;28;19920;-76
2022/10/25 13:07:58;;;;;;;;;;;16.20;71.30;;;;;;5075444;28;20400;-78
2022/10/25 13:10:24;;;;;;;;;;;16.20;72.90;;;;;;5085311;28;20376;-76
2022/10/25 13:12:58;;;;;;;;;;;16.30;70.60;;;;;;5074215;28;20011;-78
2022/10/25 13:15:24;;;;;;;;;;;16.40;69.30;;;;;;5071707;28;20011;-78
2022/10/25 13:18:12;;;;;;;;;;;16.60;70.90;;;;;;5080194;28;20053;-80
2022/10/25 13:20:38;;;;;;;;;;;16.70;71.40;;;;;;5072458;28;20375;-78
2022/10/25 13:23:22;;;;;;;;;;;16.70;73.10;;;;;;5083385;28;19936;-78
2022/10/25 13:25:47;;;;;;;;;;;16.70;72.40;;;;;;5078620;28;19924;-78
2022/10/25 13:28:13;;;;;;;;;;;16.80;72.40;;;;;;5073772;28;19913;-79
2022/10/25 13:30:38;;;;;;;;;;;16.90;73.60;;;;;;5078613;28;19999;-79
2022/10/25 13:33:23;;;;;;;;;;;17.20;71.00;;;;;;5048937;28;20473;-79
2022/10/25 13:35:48;;;;;;;;;;;17.40;70.20;;;;;;5049811;28;20019;-80
2022/10/25 13:38:28;;;;;;;;;;;17.70;67.40;;;;;;5057804;28;20485;-80
2022/10/25 13:41:14;;;;;;;;;;;17.90;67.20;;;;;;5053743;28;19924;-80
2022/10/25 13:43:59;;;;;;;;;;;17.90;67.70;;;;;;5056550;28;19925;-78
2022/10/25 13:46:35;;;;;;;;;;;17.90;68.20;;;;;;5071248;28;20617;-78
2022/10/25 13:49:03;;;;;;;;;;;17.80;66.70;;;;;;5069524;28;20390;-78
2022/10/25 13:51:30;;;;;;;;;;;17.80;66.60;;;;;;5081562;28;19965;-79
2022/10/25 13:53:59;;;;;;;;;;;17.80;64.70;;;;;;5072669;28;19920;-79
2022/10/25 13:56:25;;;;;;;;;;;17.80;65.60;;;;;;5063162;28;19912;-77
2022/10/25 13:58:54;;;;;;;;;;;17.60;65.50;;;;;;5075777;28;19913;-77
2022/10/25 14:01:20;;;;;;;;;;;17.60;65.40;;;;;;5064645;28;19920;-77
2022/10/25 14:04:00;;;;;;;;;;;17.50;65.50;;;;;;5071401;28;19921;-86
2022/10/25 14:06:30;;;;;;;;;;;17.50;65.70;;;;;;5069164;28;19970;-82
2022/10/25 14:09:11;;;;;;;;;;;17.50;65.40;;;;;;5078089;28;19917;-84
2022/10/25 14:11:42;;;;;;;;;;;17.40;65.40;;;;;;5064416;28;19917;-84
2022/10/25 14:14:11;;;;;;;;;;;17.30;66.30;;;;;;5065719;28;19927;-83
2022/10/25 14:16:40;;;;;;;;;;;17.10;66.00;;;;;;5067479;28;19913;-83
2022/10/25 14:19:13;;;;;;;;;;;17.10;68.10;;;;;;5068063;28;19916;-83
2022/10/25 14:21:43;;;;;;;;;;;17.10;67.80;;;;;;5066815;28;19939;-84
2022/10/25 14:24:12;;;;;;;;;;;17.00;66.50;;;;;;5069494;28;20384;-85
2022/10/25 14:26:47;;;;;;;;;;;17.00;65.90;;;;;;5066202;28;19943;-84
2022/10/25 14:29:14;;;;;;;;;;;17.10;67.80;;;;;;5076795;28;19919;-85
2022/10/25 14:31:39;;;;;;;;;;;16.90;68.00;;;;;;5066311;28;19916;-84
2022/10/25 14:34:15;;;;;;;;;;;16.80;69.00;;;;;;5076153;28;19920;-85
2022/10/25 14:36:40;;;;;;;;;;;16.70;68.40;;;;;;5071027;28;19927;-87
2022/10/25 14:39:16;;;;;;;;;;;16.60;68.50;;;;;;5071442;28;19916;-86
2022/10/25 14:41:48;;;;;;;;;;;16.70;69.10;;;;;;5071054;28;19916;-86
2022/10/25 14:44:41;;;;;;;;;;;16.70;68.60;;;;;;5068781;28;19926;-87
2022/10/25 14:47:24;;;;;;;;;;;16.60;69.30;;;;;;5079259;28;19944;-87
2022/10/25 14:49:50;;;;;;;;;;;16.60;70.30;;;;;;5078330;28;19920;-87
2022/10/25 14:52:15;;;;;;;;;;;16.60;70.50;;;;;;5056449;28;20288;-94
2022/10/25 14:54:42;;;;;;;;;;;16.50;72.10;;;;;;5073354;28;20490;-86
2022/10/25 14:57:08;;;;;;;;;;;16.50;70.10;;;;;;5067400;28;19974;-85
2022/10/25 14:59:43;;;;;;;;;;;16.50;68.60;;;;;;5066708;28;19924;-86
2022/10/25 15:02:17;;;;;;;;;;;16.50;70.10;;;;;;5062849;28;20020;-86
2022/10/25 15:04:44;;;;;;;;;;;16.40;71.40;;;;;;5064262;28;19921;-85
2022/10/25 15:07:19;;;;;;;;;;;16.40;69.10;;;;;;5078321;28;20449;-85
2022/10/25 15:09:52;;;;;;;;;;;16.40;70.40;;;;;;5076495;28;19917;-85
2022/10/25 15:12:19;;;;;;;;;;;16.30;70.20;;;;;;5071923;28;19973;-82
2022/10/25 15:14:47;;;;;;;;;;;16.20;72.10;;;;;;5073128;28;19942;-82
2022/10/25 15:17:21;;;;;;;;;;;16.10;71.70;;;;;;5069029;28;19924;-84
2022/10/25 15:20:01;;;;;;;;;;;16.00;70.00;;;;;;5069566;28;19927;-85
2022/10/25 15:22:28;;;;;;;;;;;15.90;71.60;;;;;;5072329;28;19970;-84
2022/10/25 15:24:56;;;;;;;;;;;15.90;71.70;;;;;;5076738;28;19968;-85
2022/10/25 15:27:29;;;;;;;;;;;15.80;72.90;;;;;;5070375;28;20410;-84
2022/10/25 15:29:54;;;;;;;;;;;15.70;71.00;;;;;;5077217;28;19973;-83
2022/10/25 15:32:26;;;;;;;;;;;15.60;70.90;;;;;;5077073;28;19920;-83
2022/10/25 15:34:53;;;;;;;;;;;15.50;71.20;;;;;;5066099;28;19923;-83
2022/10/25 15:37:19;;;;;;;;;;;15.40;71.30;;;;;;5077934;28;19912;-83
2022/10/25 15:39:49;;;;;;;;;;;15.40;71.80;;;;;;5074516;28;19916;-86
2022/10/25 15:42:15;;;;;;;;;;;15.10;75.20;;;;;;5064010;28;19912;-82
2022/10/25 15:44:41;;;;;;;;;;;15.10;76.00;;;;;;5081756;28;19928;-83
2022/10/25 15:47:33;;;;;;;;;;;14.90;77.60;;;;;;5079351;28;20056;-84
2022/10/25 15:50:00;;;;;;;;;;;14.70;79.40;;;;;;5075652;28;19916;-83
2022/10/25 15:52:26;;;;;;;;;;;14.50;81.40;;;;;;5072429;28;20019;-83
2022/10/25 15:54:51;;;;;;;;;;;14.30;83.90;;;;;;5077070;28;20031;-82
2022/10/25 15:57:17;;;;;;;;;;;14.10;86.00;;;;;;5058576;28;19951;-83
2022/10/25 15:59:42;;;;;;;;;;;13.90;88.20;;;;;;5060686;28;20604;-83
2022/10/25 16:02:16;;;;;;;;;;;13.60;89.30;;;;;;5076688;28;19924;-83
2022/10/25 16:04:42;;;;;;;;;;;13.40;90.40;;;;;;5068048;28;19924;-83
2022/10/25 16:07:13;;;;;;;;;;;13.20;90.90;;;;;;5074663;28;19935;-84
2022/10/25 16:09:39;;;;;;;;;;;13.10;91.40;;;;;;5069722;28;19999;-82
2022/10/25 16:12:06;;;;;;;;;;;13.00;91.80;;;;;;5068719;28;20024;-84
2022/10/25 16:14:32;;;;;;;;;;;12.70;92.50;;;;;;5068195;28;19912;-82
2022/10/25 16:16:58;;;;;;;;;;;12.60;93.00;;;;;;5064225;28;19933;-85
2022/10/25 16:19:25;;;;;;;;;;;12.40;93.90;;;;;;5066158;28;20292;-85
2022/10/25 16:21:50;;;;;;;;;;;12.20;94.30;;;;;;5074763;28;19921;-87
2022/10/25 16:24:16;;;;;;;;;;;12.10;95.10;;;;;;5070767;28;19920;-87
2022/10/25 16:26:44;;;;;;;;;;;12.00;95.90;;;;;;5070630;28;20380;-86
2022/10/25 16:29:17;;;;;;;;;;;11.90;96.30;;;;;;5070816;28;19923;-85
2022/10/25 16:31:43;;;;;;;;;;;11.80;96.80;;;;;;5068572;28;20475;-85
2022/10/25 16:34:08;;;;;;;;;;;11.70;96.90;;;;;;5073324;28;19920;-82
2022/10/25 16:36:34;;;;;;;;;;;11.60;97.30;;;;;;5076248;28;20016;-83
2022/10/25 16:38:59;;;;;;;;;;;11.50;97.30;;;;;;5069158;28;19970;-84
2022/10/25 16:41:29;;;;;;;;;;;11.40;97.30;;;;;;5067195;28;19912;-83
2022/10/25 16:43:56;;;;;;;;;;;11.30;98.10;;;;;;5079850;28;20015;-83
2022/10/25 16:46:21;;;;;;;;;;;11.20;98.90;;;;;;5065788;28;19935;-84
2022/10/25 16:48:47;;;;;;;;;;;11.20;99.30;;;;;;5071618;28;20245;-83
2022/10/25 16:51:13;;;;;;;;;;;11.10;99.80;;;;;;5064239;28;19934;-83
2022/10/25 16:53:39;;;;;;;;;;;11.10;99.90;;;;;;5079773;28;19951;-83
2022/10/25 16:56:06;;;;;;;;;;;11.00;99.90;;;;;;5078163;28;19958;-84
2022/10/25 16:58:33;;;;;;;;;;;10.90;99.90;;;;;;5071767;28;19917;-83
2022/10/25 17:00:58;;;;;;;;;;;10.80;99.90;;;;;;5078127;28;20031;-84
2022/10/25 17:03:24;;;;;;;;;;;10.80;99.90;;;;;;5073964;28;20361;-83
2022/10/25 17:05:51;;;;;;;;;;;10.80;99.90;;;;;;5072083;28;20015;-84
2022/10/25 17:08:16;;;;;;;;;;;10.70;99.90;;;;;;5072674;28;19924;-83
2022/10/25 17:10:42;;;;;;;;;;;10.70;99.90;;;;;;5077536;28;20548;-86
2022/10/25 17:13:10;;;;;;;;;;;10.60;99.90;;;;;;5068179;28;19916;-83
2022/10/25 17:15:35;;;;;;;;;;;10.60;99.90;;;;;;5063613;28;19920;-83
2022/10/25 17:18:01;;;;;;;;;;;10.50;99.90;;;;;;5074648;28;19927;-83
2022/10/25 17:20:26;;;;;;;;;;;10.40;99.90;;;;;;5077794;28;19962;-83
2022/10/25 17:22:53;;;;;;;;;;;10.40;99.90;;;;;;5082354;28;19966;-83
2022/10/25 17:25:19;;;;;;;;;;;10.30;99.90;;;;;;5076128;28;19921;-85
2022/10/25 17:27:48;;;;;;;;;;;10.30;99.90;;;;;;5074271;28;20431;-84
2022/10/25 17:30:17;;;;;;;;;;;10.20;99.90;;;;;;5080456;28;19923;-83
2022/10/25 17:32:42;;;;;;;;;;;10.20;99.90;;;;;;5076293;28;19917;-83
2022/10/25 17:35:08;;;;;;;;;;;10.10;99.90;;;;;;5066947;28;19917;-83
2022/10/25 17:37:33;;;;;;;;;;;10.10;99.90;;;;;;5080338;28;19923;-83
2022/10/25 17:39:59;;;;;;;;;;;10.10;99.90;;;;;;5064899;28;19921;-83
2022/10/25 17:42:25;;;;;;;;;;;10.10;99.90;;;;;;5070843;28;20175;-81
2022/10/25 17:44:50;;;;;;;;;;;10.10;99.90;;;;;;5075454;28;20028;-81
2022/10/25 17:47:16;;;;;;;;;;;10.00;99.90;;;;;;5073086;28;20007;-81